sensor_id;sensor_type;location;lat;lon;timestamp;P1;durP1;ratioP1;P2;durP2;ratioP2
51746;SDS011;37825;40.088;18.302;2023-02-28T00:01:12;89.22;;;14.85;;
51746;SDS011;37825;40.088;18.302;2023-02-28T00:03:43;101.53;;;22.65;;
51746;SDS011;37825;40.088;18.302;2023-02-28T00:06:12;92.35;;;17.05;;
51746;SDS011;37825;40.088;18.302;2023-02-28T00:08:41;119.38;;;26.27;;
51746;SDS011;37825;40.088;18.302;2023-02-28T00:11:10;98.60;;;19.30;;
51746;SDS011;37825;40.088;18.302;2023-02-28T00:13:40;91.05;;;19.48;;
51746;SDS011;37825;40.088;18.302;2023-02-28T00:16:13;91.70;;;17.83;;
51746;SDS011;37825;40.088;18.302;2023-02-28T00:18:42;102.85;;;16.20;;
51746;SDS011;37825;40.088;18.302;2023-02-28T00:21:10;105.60;;;21.17;;
51746;SDS011;37825;40.088;18.302;2023-02-28T00:23:39;97.90;;;17.33;;
51746;SDS011;37825;40.088;18.302;2023-02-28T00:26:07;108.60;;;18.05;;
51746;SDS011;37825;40.088;18.302;2023-02-28T00:28:36;95.13;;;19.52;;
51746;SDS011;37825;40.088;18.302;2023-02-28T00:31:05;90.00;;;16.92;;
51746;SDS011;37825;40.088;18.302;2023-02-28T00:33:34;97.60;;;19.70;;
51746;SDS011;37825;40.088;18.302;2023-02-28T00:36:04;92.35;;;17.42;;
51746;SDS011;37825;40.088;18.302;2023-02-28T00:38:35;92.20;;;16.80;;
51746;SDS011;37825;40.088;18.302;2023-02-28T00:41:04;105.85;;;17.42;;
51746;SDS011;37825;40.088;18.302;2023-02-28T00:43:36;89.55;;;14.95;;
51746;SDS011;37825;40.088;18.302;2023-02-28T00:46:04;106.55;;;15.88;;
51746;SDS011;37825;40.088;18.302;2023-02-28T00:48:33;99.07;;;16.30;;
51746;SDS011;37825;40.088;18.302;2023-02-28T00:51:01;99.93;;;17.17;;
51746;SDS011;37825;40.088;18.302;2023-02-28T00:53:30;100.65;;;18.23;;
51746;SDS011;37825;40.088;18.302;2023-02-28T00:56:00;96.40;;;17.02;;
51746;SDS011;37825;40.088;18.302;2023-02-28T00:58:29;95.85;;;15.48;;
51746;SDS011;37825;40.088;18.302;2023-02-28T01:00:57;98.00;;;14.27;;
51746;SDS011;37825;40.088;18.302;2023-02-28T01:03:26;109.53;;;14.93;;
51746;SDS011;37825;40.088;18.302;2023-02-28T01:05:54;104.00;;;16.25;;
51746;SDS011;37825;40.088;18.302;2023-02-28T01:08:23;93.13;;;14.75;;
51746;SDS011;37825;40.088;18.302;2023-02-28T01:10:53;103.20;;;15.43;;
51746;SDS011;37825;40.088;18.302;2023-02-28T01:13:21;105.00;;;16.48;;
51746;SDS011;37825;40.088;18.302;2023-02-28T01:15:51;90.63;;;15.95;;
51746;SDS011;37825;40.088;18.302;2023-02-28T01:18:20;99.97;;;15.73;;
51746;SDS011;37825;40.088;18.302;2023-02-28T01:20:49;103.65;;;14.82;;
51746;SDS011;37825;40.088;18.302;2023-02-28T01:23:19;85.45;;;15.38;;
51746;SDS011;37825;40.088;18.302;2023-02-28T01:25:50;101.43;;;15.32;;
51746;SDS011;37825;40.088;18.302;2023-02-28T01:28:19;93.50;;;14.32;;
51746;SDS011;37825;40.088;18.302;2023-02-28T01:30:48;99.57;;;15.90;;
51746;SDS011;37825;40.088;18.302;2023-02-28T01:33:16;74.82;;;12.88;;
51746;SDS011;37825;40.088;18.302;2023-02-28T01:35:44;95.47;;;15.40;;
51746;SDS011;37825;40.088;18.302;2023-02-28T01:38:14;96.00;;;16.08;;
51746;SDS011;37825;40.088;18.302;2023-02-28T01:40:48;88.38;;;15.10;;
51746;SDS011;37825;40.088;18.302;2023-02-28T01:46:09;94.03;;;15.57;;
51746;SDS011;37825;40.088;18.302;2023-02-28T01:48:44;93.65;;;17.00;;
51746;SDS011;37825;40.088;18.302;2023-02-28T01:51:16;93.95;;;16.85;;
51746;SDS011;37825;40.088;18.302;2023-02-28T01:53:46;97.88;;;14.52;;
51746;SDS011;37825;40.088;18.302;2023-02-28T01:56:16;95.68;;;15.20;;
51746;SDS011;37825;40.088;18.302;2023-02-28T01:58:52;77.55;;;13.48;;
51746;SDS011;37825;40.088;18.302;2023-02-28T02:01:22;81.38;;;13.65;;
51746;SDS011;37825;40.088;18.302;2023-02-28T02:03:53;98.65;;;15.30;;
51746;SDS011;37825;40.088;18.302;2023-02-28T02:06:25;91.75;;;13.00;;
51746;SDS011;37825;40.088;18.302;2023-02-28T02:08:54;75.00;;;13.85;;
51746;SDS011;37825;40.088;18.302;2023-02-28T02:11:22;98.47;;;15.18;;
51746;SDS011;37825;40.088;18.302;2023-02-28T02:22:06;84.32;;;14.32;;
51746;SDS011;37825;40.088;18.302;2023-02-28T02:24:58;87.28;;;14.02;;
51746;SDS011;37825;40.088;18.302;2023-02-28T02:35:24;86.30;;;15.40;;
51746;SDS011;37825;40.088;18.302;2023-02-28T02:38:04;93.05;;;15.65;;
51746;SDS011;37825;40.088;18.302;2023-02-28T02:40:37;99.88;;;16.50;;
51746;SDS011;37825;40.088;18.302;2023-02-28T02:45:44;93.80;;;13.98;;
51746;SDS011;37825;40.088;18.302;2023-02-28T02:48:16;83.63;;;14.77;;
51746;SDS011;37825;40.088;18.302;2023-02-28T02:50:46;92.15;;;17.67;;
51746;SDS011;37825;40.088;18.302;2023-02-28T02:53:15;96.03;;;15.82;;
51746;SDS011;37825;40.088;18.302;2023-02-28T02:55:46;87.55;;;13.52;;
51746;SDS011;37825;40.088;18.302;2023-02-28T02:58:22;101.97;;;13.07;;
51746;SDS011;37825;40.088;18.302;2023-02-28T03:00:56;108.72;;;14.63;;
51746;SDS011;37825;40.088;18.302;2023-02-28T03:03:25;107.97;;;16.00;;
51746;SDS011;37825;40.088;18.302;2023-02-28T03:05:57;102.40;;;15.00;;
51746;SDS011;37825;40.088;18.302;2023-02-28T03:08:26;107.57;;;14.98;;
51746;SDS011;37825;40.088;18.302;2023-02-28T03:10:56;97.97;;;15.52;;
51746;SDS011;37825;40.088;18.302;2023-02-28T03:24:32;92.88;;;14.77;;
51746;SDS011;37825;40.088;18.302;2023-02-28T03:27:04;106.22;;;15.73;;
51746;SDS011;37825;40.088;18.302;2023-02-28T03:29:37;100.82;;;15.75;;
51746;SDS011;37825;40.088;18.302;2023-02-28T03:32:15;114.22;;;18.33;;
51746;SDS011;37825;40.088;18.302;2023-02-28T03:34:59;111.90;;;17.88;;
51746;SDS011;37825;40.088;18.302;2023-02-28T03:37:32;113.55;;;17.42;;
51746;SDS011;37825;40.088;18.302;2023-02-28T03:42:33;119.65;;;18.05;;
51746;SDS011;37825;40.088;18.302;2023-02-28T03:45:25;119.70;;;15.65;;
51746;SDS011;37825;40.088;18.302;2023-02-28T03:48:01;119.45;;;16.50;;
51746;SDS011;37825;40.088;18.302;2023-02-28T03:55:34;103.13;;;18.35;;
51746;SDS011;37825;40.088;18.302;2023-02-28T04:00:35;99.03;;;15.85;;
51746;SDS011;37825;40.088;18.302;2023-02-28T04:03:06;88.05;;;13.23;;
51746;SDS011;37825;40.088;18.302;2023-02-28T04:05:34;106.18;;;16.50;;
51746;SDS011;37825;40.088;18.302;2023-02-28T04:08:11;100.35;;;16.10;;
51746;SDS011;37825;40.088;18.302;2023-02-28T04:10:39;113.25;;;17.50;;
51746;SDS011;37825;40.088;18.302;2023-02-28T04:13:10;102.97;;;18.00;;
51746;SDS011;37825;40.088;18.302;2023-02-28T04:15:38;112.93;;;18.23;;
51746;SDS011;37825;40.088;18.302;2023-02-28T04:18:07;109.75;;;17.45;;
51746;SDS011;37825;40.088;18.302;2023-02-28T04:20:35;105.13;;;16.13;;
51746;SDS011;37825;40.088;18.302;2023-02-28T04:23:04;93.72;;;15.23;;
51746;SDS011;37825;40.088;18.302;2023-02-28T04:25:32;106.60;;;16.35;;
51746;SDS011;37825;40.088;18.302;2023-02-28T04:28:00;96.53;;;14.10;;
51746;SDS011;37825;40.088;18.302;2023-02-28T04:30:28;93.55;;;14.32;;
51746;SDS011;37825;40.088;18.302;2023-02-28T04:32:59;95.38;;;15.68;;
51746;SDS011;37825;40.088;18.302;2023-02-28T04:35:28;82.95;;;14.27;;
51746;SDS011;37825;40.088;18.302;2023-02-28T04:37:56;93.63;;;16.35;;
51746;SDS011;37825;40.088;18.302;2023-02-28T04:40:24;95.90;;;15.02;;
51746;SDS011;37825;40.088;18.302;2023-02-28T04:42:52;113.35;;;16.85;;
51746;SDS011;37825;40.088;18.302;2023-02-28T04:45:21;89.63;;;15.00;;
51746;SDS011;37825;40.088;18.302;2023-02-28T04:47:49;106.18;;;14.50;;
51746;SDS011;37825;40.088;18.302;2023-02-28T04:50:18;86.72;;;16.15;;
51746;SDS011;37825;40.088;18.302;2023-02-28T04:52:46;98.47;;;16.90;;
51746;SDS011;37825;40.088;18.302;2023-02-28T04:55:15;89.10;;;15.85;;
51746;SDS011;37825;40.088;18.302;2023-02-28T04:57:44;99.03;;;14.95;;
51746;SDS011;37825;40.088;18.302;2023-02-28T05:00:12;96.45;;;15.05;;
51746;SDS011;37825;40.088;18.302;2023-02-28T05:02:43;99.68;;;16.77;;
51746;SDS011;37825;40.088;18.302;2023-02-28T05:05:12;95.93;;;14.57;;
51746;SDS011;37825;40.088;18.302;2023-02-28T05:07:45;95.30;;;15.52;;
51746;SDS011;37825;40.088;18.302;2023-02-28T05:10:13;89.40;;;13.65;;
51746;SDS011;37825;40.088;18.302;2023-02-28T05:12:42;106.68;;;16.13;;
51746;SDS011;37825;40.088;18.302;2023-02-28T05:15:13;96.28;;;15.38;;
51746;SDS011;37825;40.088;18.302;2023-02-28T05:20:09;105.07;;;16.50;;
51746;SDS011;37825;40.088;18.302;2023-02-28T05:22:42;102.60;;;16.60;;
51746;SDS011;37825;40.088;18.302;2023-02-28T05:25:11;104.47;;;16.63;;
51746;SDS011;37825;40.088;18.302;2023-02-28T05:27:41;89.82;;;17.60;;
51746;SDS011;37825;40.088;18.302;2023-02-28T05:30:10;109.10;;;18.10;;
51746;SDS011;37825;40.088;18.302;2023-02-28T05:32:39;90.28;;;17.42;;
51746;SDS011;37825;40.088;18.302;2023-02-28T05:35:11;110.57;;;17.52;;
51746;SDS011;37825;40.088;18.302;2023-02-28T05:37:40;114.70;;;20.90;;
51746;SDS011;37825;40.088;18.302;2023-02-28T05:40:08;107.10;;;19.73;;
51746;SDS011;37825;40.088;18.302;2023-02-28T05:42:40;89.60;;;18.25;;
51746;SDS011;37825;40.088;18.302;2023-02-28T05:45:09;93.78;;;19.13;;
51746;SDS011;37825;40.088;18.302;2023-02-28T05:47:38;88.80;;;15.18;;
51746;SDS011;37825;40.088;18.302;2023-02-28T05:50:06;94.07;;;15.48;;
51746;SDS011;37825;40.088;18.302;2023-02-28T05:52:36;91.18;;;16.38;;
51746;SDS011;37825;40.088;18.302;2023-02-28T05:55:05;79.35;;;14.80;;
51746;SDS011;37825;40.088;18.302;2023-02-28T05:57:33;91.15;;;14.40;;
51746;SDS011;37825;40.088;18.302;2023-02-28T06:00:02;99.93;;;18.00;;
51746;SDS011;37825;40.088;18.302;2023-02-28T06:02:38;93.18;;;17.05;;
51746;SDS011;37825;40.088;18.302;2023-02-28T06:05:10;95.45;;;18.42;;
51746;SDS011;37825;40.088;18.302;2023-02-28T06:07:41;103.20;;;17.65;;
51746;SDS011;37825;40.088;18.302;2023-02-28T06:10:10;98.28;;;15.98;;
51746;SDS011;37825;40.088;18.302;2023-02-28T06:12:39;95.05;;;16.50;;
51746;SDS011;37825;40.088;18.302;2023-02-28T06:15:12;97.57;;;16.05;;
51746;SDS011;37825;40.088;18.302;2023-02-28T06:17:41;93.28;;;15.10;;
51746;SDS011;37825;40.088;18.302;2023-02-28T06:20:11;98.28;;;15.35;;
51746;SDS011;37825;40.088;18.302;2023-02-28T06:22:39;108.22;;;16.60;;
51746;SDS011;37825;40.088;18.302;2023-02-28T06:25:08;83.88;;;14.85;;
51746;SDS011;37825;40.088;18.302;2023-02-28T06:27:37;93.90;;;15.63;;
51746;SDS011;37825;40.088;18.302;2023-02-28T06:30:06;93.82;;;15.18;;
51746;SDS011;37825;40.088;18.302;2023-02-28T06:32:34;92.15;;;14.85;;
51746;SDS011;37825;40.088;18.302;2023-02-28T06:35:03;86.60;;;14.02;;
51746;SDS011;37825;40.088;18.302;2023-02-28T06:37:32;82.82;;;13.88;;
51746;SDS011;37825;40.088;18.302;2023-02-28T06:40:01;76.35;;;14.02;;
51746;SDS011;37825;40.088;18.302;2023-02-28T06:42:30;100.53;;;16.23;;
51746;SDS011;37825;40.088;18.302;2023-02-28T06:44:59;99.05;;;13.73;;
51746;SDS011;37825;40.088;18.302;2023-02-28T06:47:30;98.25;;;16.02;;
51746;SDS011;37825;40.088;18.302;2023-02-28T06:50:01;90.55;;;14.57;;
51746;SDS011;37825;40.088;18.302;2023-02-28T06:52:30;80.95;;;14.13;;
51746;SDS011;37825;40.088;18.302;2023-02-28T06:54:58;99.82;;;16.73;;
51746;SDS011;37825;40.088;18.302;2023-02-28T06:57:28;91.78;;;15.82;;
51746;SDS011;37825;40.088;18.302;2023-02-28T07:00:02;79.90;;;14.63;;
51746;SDS011;37825;40.088;18.302;2023-02-28T07:02:31;80.18;;;14.73;;
51746;SDS011;37825;40.088;18.302;2023-02-28T07:05:01;81.25;;;14.75;;
51746;SDS011;37825;40.088;18.302;2023-02-28T07:07:29;94.97;;;18.55;;
51746;SDS011;37825;40.088;18.302;2023-02-28T07:09:57;89.60;;;15.18;;
51746;SDS011;37825;40.088;18.302;2023-02-28T07:12:25;97.50;;;17.83;;
51746;SDS011;37825;40.088;18.302;2023-02-28T07:14:54;94.72;;;17.30;;
51746;SDS011;37825;40.088;18.302;2023-02-28T07:17:23;86.28;;;17.20;;
51746;SDS011;37825;40.088;18.302;2023-02-28T07:19:51;95.85;;;25.17;;
51746;SDS011;37825;40.088;18.302;2023-02-28T07:22:20;91.68;;;18.55;;
51746;SDS011;37825;40.088;18.302;2023-02-28T07:24:48;84.07;;;17.85;;
51746;SDS011;37825;40.088;18.302;2023-02-28T07:27:16;84.93;;;14.73;;
51746;SDS011;37825;40.088;18.302;2023-02-28T07:29:51;94.15;;;15.88;;
51746;SDS011;37825;40.088;18.302;2023-02-28T07:32:19;88.47;;;14.48;;
51746;SDS011;37825;40.088;18.302;2023-02-28T07:34:47;71.40;;;10.52;;
51746;SDS011;37825;40.088;18.302;2023-02-28T07:37:16;80.63;;;11.82;;
51746;SDS011;37825;40.088;18.302;2023-02-28T07:39:44;65.10;;;9.10;;
51746;SDS011;37825;40.088;18.302;2023-02-28T07:42:12;53.95;;;10.48;;
51746;SDS011;37825;40.088;18.302;2023-02-28T07:44:40;63.55;;;9.38;;
51746;SDS011;37825;40.088;18.302;2023-02-28T07:47:09;66.13;;;11.05;;
51746;SDS011;37825;40.088;18.302;2023-02-28T07:49:39;62.25;;;9.20;;
51746;SDS011;37825;40.088;18.302;2023-02-28T07:52:07;47.13;;;9.27;;
51746;SDS011;37825;40.088;18.302;2023-02-28T07:54:38;52.67;;;8.30;;
51746;SDS011;37825;40.088;18.302;2023-02-28T07:57:06;53.10;;;9.13;;
51746;SDS011;37825;40.088;18.302;2023-02-28T07:59:34;55.50;;;9.77;;
51746;SDS011;37825;40.088;18.302;2023-02-28T08:02:03;52.88;;;8.68;;
51746;SDS011;37825;40.088;18.302;2023-02-28T08:04:32;53.97;;;8.55;;
51746;SDS011;37825;40.088;18.302;2023-02-28T08:07:00;53.10;;;7.80;;
51746;SDS011;37825;40.088;18.302;2023-02-28T08:09:29;48.88;;;8.63;;
51746;SDS011;37825;40.088;18.302;2023-02-28T08:11:57;59.47;;;19.13;;
51746;SDS011;37825;40.088;18.302;2023-02-28T08:14:25;42.30;;;8.32;;
51746;SDS011;37825;40.088;18.302;2023-02-28T08:16:54;58.00;;;8.43;;
51746;SDS011;37825;40.088;18.302;2023-02-28T08:19:22;53.50;;;9.00;;
51746;SDS011;37825;40.088;18.302;2023-02-28T08:21:51;60.42;;;8.15;;
51746;SDS011;37825;40.088;18.302;2023-02-28T08:24:19;45.78;;;8.02;;
51746;SDS011;37825;40.088;18.302;2023-02-28T08:26:47;52.38;;;9.82;;
51746;SDS011;37825;40.088;18.302;2023-02-28T08:29:15;56.05;;;11.85;;
51746;SDS011;37825;40.088;18.302;2023-02-28T08:31:44;50.80;;;12.15;;
51746;SDS011;37825;40.088;18.302;2023-02-28T08:34:13;58.28;;;10.57;;
51746;SDS011;37825;40.088;18.302;2023-02-28T08:36:42;38.45;;;8.85;;
51746;SDS011;37825;40.088;18.302;2023-02-28T08:39:13;43.30;;;8.30;;
51746;SDS011;37825;40.088;18.302;2023-02-28T08:41:42;43.10;;;7.93;;
51746;SDS011;37825;40.088;18.302;2023-02-28T08:44:11;54.05;;;9.35;;
51746;SDS011;37825;40.088;18.302;2023-02-28T08:46:39;32.85;;;7.30;;
51746;SDS011;37825;40.088;18.302;2023-02-28T08:49:09;41.28;;;9.52;;
51746;SDS011;37825;40.088;18.302;2023-02-28T08:54:07;50.25;;;9.27;;
51746;SDS011;37825;40.088;18.302;2023-02-28T08:56:36;55.65;;;10.82;;
51746;SDS011;37825;40.088;18.302;2023-02-28T08:59:04;52.78;;;9.82;;
51746;SDS011;37825;40.088;18.302;2023-02-28T09:01:32;56.78;;;8.68;;
51746;SDS011;37825;40.088;18.302;2023-02-28T09:04:01;51.17;;;7.43;;
51746;SDS011;37825;40.088;18.302;2023-02-28T09:06:30;65.00;;;9.52;;
51746;SDS011;37825;40.088;18.302;2023-02-28T09:08:59;34.72;;;6.13;;
51746;SDS011;37825;40.088;18.302;2023-02-28T09:11:28;52.70;;;9.05;;
51746;SDS011;37825;40.088;18.302;2023-02-28T09:13:57;46.88;;;7.35;;
51746;SDS011;37825;40.088;18.302;2023-02-28T09:16:26;37.05;;;7.88;;
51746;SDS011;37825;40.088;18.302;2023-02-28T09:18:54;40.08;;;7.80;;
51746;SDS011;37825;40.088;18.302;2023-02-28T09:21:22;44.47;;;9.30;;
51746;SDS011;37825;40.088;18.302;2023-02-28T09:23:52;39.83;;;8.00;;
51746;SDS011;37825;40.088;18.302;2023-02-28T09:26:24;43.03;;;8.38;;
51746;SDS011;37825;40.088;18.302;2023-02-28T09:28:54;37.15;;;7.22;;
51746;SDS011;37825;40.088;18.302;2023-02-28T09:31:23;43.67;;;7.40;;
51746;SDS011;37825;40.088;18.302;2023-02-28T09:33:53;38.55;;;6.25;;
51746;SDS011;37825;40.088;18.302;2023-02-28T09:36:23;51.38;;;11.30;;
51746;SDS011;37825;40.088;18.302;2023-02-28T09:39:00;49.72;;;8.27;;
51746;SDS011;37825;40.088;18.302;2023-02-28T09:41:32;48.15;;;7.20;;
51746;SDS011;37825;40.088;18.302;2023-02-28T09:44:07;50.05;;;7.60;;
51746;SDS011;37825;40.088;18.302;2023-02-28T09:46:40;51.72;;;8.13;;
51746;SDS011;37825;40.088;18.302;2023-02-28T09:49:14;140.15;;;63.35;;
51746;SDS011;37825;40.088;18.302;2023-02-28T09:51:59;46.92;;;12.50;;
51746;SDS011;37825;40.088;18.302;2023-02-28T09:54:29;36.15;;;9.93;;
51746;SDS011;37825;40.088;18.302;2023-02-28T10:05:00;26.00;;;4.63;;
51746;SDS011;37825;40.088;18.302;2023-02-28T10:07:37;45.55;;;10.35;;
51746;SDS011;37825;40.088;18.302;2023-02-28T10:10:17;37.92;;;6.38;;
51746;SDS011;37825;40.088;18.302;2023-02-28T10:12:48;35.47;;;6.70;;
51746;SDS011;37825;40.088;18.302;2023-02-28T10:15:18;43.70;;;8.07;;
51746;SDS011;37825;40.088;18.302;2023-02-28T10:17:49;47.10;;;6.60;;
51746;SDS011;37825;40.088;18.302;2023-02-28T10:20:35;30.85;;;5.70;;
51746;SDS011;37825;40.088;18.302;2023-02-28T10:23:05;36.72;;;5.82;;
51746;SDS011;37825;40.088;18.302;2023-02-28T10:25:37;31.33;;;5.90;;
51746;SDS011;37825;40.088;18.302;2023-02-28T10:28:16;30.45;;;6.03;;
51746;SDS011;37825;40.088;18.302;2023-02-28T10:30:46;35.03;;;5.60;;
51746;SDS011;37825;40.088;18.302;2023-02-28T10:33:33;41.13;;;6.10;;
51746;SDS011;37825;40.088;18.302;2023-02-28T10:36:02;29.85;;;5.60;;
51746;SDS011;37825;40.088;18.302;2023-02-28T10:38:35;29.23;;;6.47;;
51746;SDS011;37825;40.088;18.302;2023-02-28T10:41:07;44.28;;;8.15;;
51746;SDS011;37825;40.088;18.302;2023-02-28T10:43:36;39.75;;;7.50;;
51746;SDS011;37825;40.088;18.302;2023-02-28T10:48:37;33.22;;;6.15;;
51746;SDS011;37825;40.088;18.302;2023-02-28T10:51:08;40.50;;;5.97;;
51746;SDS011;37825;40.088;18.302;2023-02-28T10:53:45;32.67;;;5.70;;
51746;SDS011;37825;40.088;18.302;2023-02-28T10:56:26;33.08;;;6.00;;
51746;SDS011;37825;40.088;18.302;2023-02-28T10:59:02;45.30;;;6.72;;
51746;SDS011;37825;40.088;18.302;2023-02-28T11:01:38;34.00;;;6.35;;
51746;SDS011;37825;40.088;18.302;2023-02-28T11:04:31;33.88;;;6.95;;
51746;SDS011;37825;40.088;18.302;2023-02-28T11:07:16;44.75;;;6.90;;
51746;SDS011;37825;40.088;18.302;2023-02-28T11:09:48;35.65;;;7.32;;
51746;SDS011;37825;40.088;18.302;2023-02-28T11:12:29;37.65;;;9.85;;
51746;SDS011;37825;40.088;18.302;2023-02-28T11:15:01;33.78;;;7.07;;
51746;SDS011;37825;40.088;18.302;2023-02-28T11:17:32;43.33;;;7.80;;
51746;SDS011;37825;40.088;18.302;2023-02-28T11:20:06;39.15;;;7.55;;
51746;SDS011;37825;40.088;18.302;2023-02-28T11:22:39;45.40;;;7.80;;
51746;SDS011;37825;40.088;18.302;2023-02-28T11:25:26;45.17;;;7.75;;
51746;SDS011;37825;40.088;18.302;2023-02-28T11:28:03;42.13;;;7.50;;
51746;SDS011;37825;40.088;18.302;2023-02-28T11:30:37;35.15;;;8.15;;
51746;SDS011;37825;40.088;18.302;2023-02-28T11:33:22;33.33;;;8.15;;
51746;SDS011;37825;40.088;18.302;2023-02-28T11:35:51;38.63;;;6.55;;
51746;SDS011;37825;40.088;18.302;2023-02-28T11:38:22;27.67;;;6.23;;
51746;SDS011;37825;40.088;18.302;2023-02-28T11:43:34;39.60;;;7.15;;
51746;SDS011;37825;40.088;18.302;2023-02-28T11:51:23;52.58;;;8.32;;
51746;SDS011;37825;40.088;18.302;2023-02-28T12:06:52;39.13;;;7.63;;
51746;SDS011;37825;40.088;18.302;2023-02-28T12:09:33;44.15;;;7.55;;
51746;SDS011;37825;40.088;18.302;2023-02-28T12:14:56;33.00;;;6.70;;
51746;SDS011;37825;40.088;18.302;2023-02-28T12:22:49;31.45;;;6.03;;
51746;SDS011;37825;40.088;18.302;2023-02-28T12:25:31;40.63;;;7.10;;
51746;SDS011;37825;40.088;18.302;2023-02-28T12:28:04;44.08;;;9.15;;
51746;SDS011;37825;40.088;18.302;2023-02-28T12:30:37;34.60;;;11.35;;
51746;SDS011;37825;40.088;18.302;2023-02-28T12:33:12;53.80;;;11.35;;
51746;SDS011;37825;40.088;18.302;2023-02-28T12:35:47;41.28;;;8.32;;
51746;SDS011;37825;40.088;18.302;2023-02-28T12:38:19;46.85;;;8.43;;
51746;SDS011;37825;40.088;18.302;2023-02-28T12:43:24;34.00;;;8.98;;
51746;SDS011;37825;40.088;18.302;2023-02-28T12:48:31;35.78;;;6.80;;
51746;SDS011;37825;40.088;18.302;2023-02-28T12:51:05;40.15;;;8.75;;
51746;SDS011;37825;40.088;18.302;2023-02-28T12:53:43;37.53;;;6.60;;
51746;SDS011;37825;40.088;18.302;2023-02-28T12:58:47;37.45;;;10.10;;
51746;SDS011;37825;40.088;18.302;2023-02-28T13:09:16;39.15;;;7.75;;
51746;SDS011;37825;40.088;18.302;2023-02-28T13:11:47;35.38;;;6.75;;
51746;SDS011;37825;40.088;18.302;2023-02-28T13:19:37;36.63;;;6.72;;
51746;SDS011;37825;40.088;18.302;2023-02-28T13:22:15;32.75;;;6.35;;
51746;SDS011;37825;40.088;18.302;2023-02-28T13:29:41;37.75;;;6.55;;
51746;SDS011;37825;40.088;18.302;2023-02-28T13:40:37;45.05;;;8.15;;
51746;SDS011;37825;40.088;18.302;2023-02-28T13:50:29;38.35;;;6.85;;
51746;SDS011;37825;40.088;18.302;2023-02-28T13:55:49;30.55;;;7.95;;
51746;SDS011;37825;40.088;18.302;2023-02-28T13:58:31;26.98;;;5.55;;
51746;SDS011;37825;40.088;18.302;2023-02-28T14:09:01;35.05;;;6.30;;
51746;SDS011;37825;40.088;18.302;2023-02-28T14:11:36;41.58;;;9.55;;
51746;SDS011;37825;40.088;18.302;2023-02-28T14:14:05;38.10;;;7.87;;
51746;SDS011;37825;40.088;18.302;2023-02-28T14:21:43;38.33;;;8.95;;
51746;SDS011;37825;40.088;18.302;2023-02-28T14:35:02;28.08;;;5.82;;
51746;SDS011;37825;40.088;18.302;2023-02-28T14:37:34;33.17;;;6.57;;
51746;SDS011;37825;40.088;18.302;2023-02-28T14:40:16;34.95;;;7.38;;
51746;SDS011;37825;40.088;18.302;2023-02-28T14:42:55;36.47;;;6.80;;
51746;SDS011;37825;40.088;18.302;2023-02-28T14:45:26;37.00;;;6.60;;
51746;SDS011;37825;40.088;18.302;2023-02-28T14:47:55;48.88;;;7.90;;
51746;SDS011;37825;40.088;18.302;2023-02-28T14:50:27;33.53;;;5.80;;
51746;SDS011;37825;40.088;18.302;2023-02-28T14:52:57;36.67;;;7.55;;
51746;SDS011;37825;40.088;18.302;2023-02-28T14:55:28;36.92;;;6.57;;
51746;SDS011;37825;40.088;18.302;2023-02-28T15:00:29;39.13;;;8.13;;
51746;SDS011;37825;40.088;18.302;2023-02-28T15:02:58;34.50;;;6.22;;
51746;SDS011;37825;40.088;18.302;2023-02-28T15:08:03;22.52;;;4.80;;
51746;SDS011;37825;40.088;18.302;2023-02-28T15:10:31;30.30;;;6.28;;
51746;SDS011;37825;40.088;18.302;2023-02-28T15:13:02;32.10;;;5.57;;
51746;SDS011;37825;40.088;18.302;2023-02-28T15:21:06;33.90;;;5.70;;
51746;SDS011;37825;40.088;18.302;2023-02-28T15:23:35;25.25;;;5.70;;
51746;SDS011;37825;40.088;18.302;2023-02-28T15:26:04;30.75;;;5.32;;
51746;SDS011;37825;40.088;18.302;2023-02-28T15:28:33;37.38;;;7.32;;
51746;SDS011;37825;40.088;18.302;2023-02-28T15:31:02;29.67;;;7.57;;
51746;SDS011;37825;40.088;18.302;2023-02-28T15:33:31;25.05;;;5.78;;
51746;SDS011;37825;40.088;18.302;2023-02-28T15:36:18;31.98;;;6.60;;
51746;SDS011;37825;40.088;18.302;2023-02-28T15:38:51;31.92;;;4.85;;
51746;SDS011;37825;40.088;18.302;2023-02-28T15:46:53;24.70;;;5.80;;
51746;SDS011;37825;40.088;18.302;2023-02-28T15:49:22;26.48;;;5.80;;
51746;SDS011;37825;40.088;18.302;2023-02-28T15:51:52;33.20;;;5.05;;
51746;SDS011;37825;40.088;18.302;2023-02-28T15:54:27;33.40;;;5.95;;
51746;SDS011;37825;40.088;18.302;2023-02-28T15:56:56;36.78;;;8.43;;
51746;SDS011;37825;40.088;18.302;2023-02-28T15:59:26;30.52;;;7.13;;
51746;SDS011;37825;40.088;18.302;2023-02-28T16:02:02;23.02;;;3.47;;
51746;SDS011;37825;40.088;18.302;2023-02-28T16:04:31;26.42;;;5.43;;
51746;SDS011;37825;40.088;18.302;2023-02-28T16:07:04;32.35;;;6.20;;
51746;SDS011;37825;40.088;18.302;2023-02-28T16:09:32;19.40;;;5.13;;
51746;SDS011;37825;40.088;18.302;2023-02-28T16:12:02;28.85;;;5.85;;
51746;SDS011;37825;40.088;18.302;2023-02-28T16:14:31;33.75;;;6.70;;
51746;SDS011;37825;40.088;18.302;2023-02-28T16:17:03;26.40;;;5.88;;
51746;SDS011;37825;40.088;18.302;2023-02-28T16:19:32;30.10;;;6.53;;
51746;SDS011;37825;40.088;18.302;2023-02-28T16:22:01;31.90;;;5.38;;
51746;SDS011;37825;40.088;18.302;2023-02-28T16:24:30;30.50;;;5.63;;
51746;SDS011;37825;40.088;18.302;2023-02-28T16:26:58;26.65;;;5.22;;
51746;SDS011;37825;40.088;18.302;2023-02-28T16:29:28;36.38;;;6.13;;
51746;SDS011;37825;40.088;18.302;2023-02-28T16:31:58;28.55;;;6.45;;
51746;SDS011;37825;40.088;18.302;2023-02-28T16:34:27;33.35;;;7.80;;
51746;SDS011;37825;40.088;18.302;2023-02-28T16:36:55;39.80;;;12.93;;
51746;SDS011;37825;40.088;18.302;2023-02-28T16:39:24;39.92;;;14.15;;
51746;SDS011;37825;40.088;18.302;2023-02-28T16:41:52;36.55;;;12.05;;
51746;SDS011;37825;40.088;18.302;2023-02-28T16:44:31;40.03;;;10.10;;
51746;SDS011;37825;40.088;18.302;2023-02-28T16:47:00;34.88;;;12.88;;
51746;SDS011;37825;40.088;18.302;2023-02-28T16:49:29;40.20;;;13.55;;
51746;SDS011;37825;40.088;18.302;2023-02-28T16:51:58;45.58;;;12.35;;
51746;SDS011;37825;40.088;18.302;2023-02-28T16:54:26;35.42;;;10.95;;
51746;SDS011;37825;40.088;18.302;2023-02-28T16:56:54;33.05;;;7.75;;
51746;SDS011;37825;40.088;18.302;2023-02-28T16:59:23;40.08;;;15.60;;
51746;SDS011;37825;40.088;18.302;2023-02-28T17:01:53;32.42;;;8.98;;
51746;SDS011;37825;40.088;18.302;2023-02-28T17:04:21;34.05;;;9.27;;
51746;SDS011;37825;40.088;18.302;2023-02-28T17:06:50;37.25;;;8.30;;
51746;SDS011;37825;40.088;18.302;2023-02-28T17:09:20;43.67;;;10.90;;
51746;SDS011;37825;40.088;18.302;2023-02-28T17:11:52;33.38;;;8.45;;
51746;SDS011;37825;40.088;18.302;2023-02-28T17:14:20;31.90;;;7.93;;
51746;SDS011;37825;40.088;18.302;2023-02-28T17:16:50;30.27;;;8.45;;
51746;SDS011;37825;40.088;18.302;2023-02-28T17:19:18;42.38;;;10.55;;
51746;SDS011;37825;40.088;18.302;2023-02-28T17:21:49;36.10;;;10.18;;
51746;SDS011;37825;40.088;18.302;2023-02-28T17:24:18;27.63;;;9.07;;
51746;SDS011;37825;40.088;18.302;2023-02-28T17:26:57;31.08;;;8.30;;